createdAt,value
2023-05-10T00:00:18.616Z,100.00
2023-05-10T00:02:46.693Z,100.00
2023-05-10T00:05:14.442Z,100.00
2023-05-10T00:07:45.499Z,100.00
2023-05-10T00:10:13.662Z,100.00
2023-05-10T00:12:41.477Z,100.00
2023-05-10T00:15:11.415Z,100.00
2023-05-10T00:17:39.107Z,100.00
2023-05-10T00:20:07.827Z,100.00
2023-05-10T00:22:35.587Z,100.00
2023-05-10T00:25:03.744Z,100.00
2023-05-10T00:27:31.416Z,100.00
2023-05-10T00:29:59.110Z,100.00
2023-05-10T00:32:28.137Z,100.00
2023-05-10T00:34:55.795Z,100.00
2023-05-10T00:37:23.795Z,100.00
2023-05-10T00:39:51.457Z,100.00
2023-05-10T00:42:19.151Z,100.00
2023-05-10T00:44:47.639Z,100.00
2023-05-10T00:47:15.473Z,100.00
2023-05-10T00:49:44.635Z,100.00
2023-05-10T00:52:12.405Z,100.00
2023-05-10T00:54:40.137Z,100.00
2023-05-10T00:57:07.845Z,100.00
2023-05-10T00:59:35.569Z,100.00
2023-05-10T01:02:03.931Z,100.00
2023-05-10T01:04:32.322Z,100.00
2023-05-10T01:07:02.032Z,100.00
2023-05-10T01:09:30.026Z,100.00
2023-05-10T01:11:58.616Z,100.00
2023-05-10T01:14:27.185Z,100.00
2023-05-10T01:16:54.968Z,100.00
2023-05-10T01:19:26.091Z,100.00
2023-05-10T01:22:02.241Z,100.00
2023-05-10T01:24:47.794Z,100.00
2023-05-10T01:27:41.019Z,100.00
2023-05-10T01:30:59.450Z,100.00
2023-05-10T01:33:32.443Z,100.00
2023-05-10T01:36:07.553Z,100.00
2023-05-10T01:38:41.288Z,100.00
2023-05-10T01:41:15.835Z,100.00
2023-05-10T01:43:48.217Z,100.00
2023-05-10T01:46:19.151Z,100.00
2023-05-10T01:48:50.246Z,100.00
2023-05-10T01:51:21.098Z,100.00
2023-05-10T01:53:50.197Z,100.00
2023-05-10T01:56:18.292Z,100.00
2023-05-10T01:58:47.462Z,100.00
2023-05-10T02:01:15.464Z,100.00
2023-05-10T02:03:44.744Z,100.00
2023-05-10T02:06:15.388Z,100.00
2023-05-10T02:08:46.511Z,100.00
2023-05-10T02:11:15.646Z,100.00
2023-05-10T02:13:44.524Z,100.00
2023-05-10T02:16:12.530Z,100.00
2023-05-10T02:18:41.912Z,100.00
2023-05-10T02:21:10.757Z,100.00
2023-05-10T02:23:40.256Z,100.00
2023-05-10T02:26:08.609Z,100.00
2023-05-10T02:28:38.595Z,100.00
2023-05-10T02:31:07.590Z,100.00
2023-05-10T02:33:36.298Z,100.00
2023-05-10T02:36:04.850Z,100.00
2023-05-10T02:38:33.348Z,100.00
2023-05-10T02:41:03.831Z,100.00
2023-05-10T02:43:32.486Z,100.00
2023-05-10T02:46:00.275Z,100.00
2023-05-10T02:48:28.034Z,100.00
2023-05-10T02:50:57.239Z,100.00
2023-05-10T02:53:27.580Z,100.00
2023-05-10T02:55:59.830Z,100.00
2023-05-10T02:58:29.144Z,100.00
2023-05-10T03:00:56.882Z,100.00
2023-05-10T03:03:24.541Z,100.00
2023-05-10T03:05:54.741Z,100.00
2023-05-10T03:08:22.444Z,100.00
2023-05-10T03:10:57.825Z,100.00
2023-05-10T03:13:31.668Z,100.00
2023-05-10T03:16:03.068Z,100.00
2023-05-10T03:18:38.803Z,100.00
2023-05-10T03:21:11.572Z,100.00
2023-05-10T03:23:43.304Z,100.00
2023-05-10T03:26:11.377Z,100.00
2023-05-10T03:28:41.624Z,100.00
2023-05-10T03:31:09.461Z,100.00
2023-05-10T03:33:37.253Z,100.00
2023-05-10T03:36:05.510Z,100.00
2023-05-10T03:38:33.163Z,100.00
2023-05-10T03:41:00.815Z,100.00
2023-05-10T03:43:28.607Z,100.00
2023-05-10T03:45:57.675Z,100.00
2023-05-10T03:48:25.383Z,100.00
2023-05-10T03:50:53.049Z,100.00
2023-05-10T03:53:21.110Z,100.00
2023-05-10T03:55:48.788Z,100.00
2023-05-10T03:58:16.531Z,100.00
2023-05-10T04:00:46.088Z,100.00
2023-05-10T04:03:15.807Z,100.00
2023-05-10T04:05:43.624Z,100.00
2023-05-10T04:08:11.511Z,100.00
2023-05-10T04:10:39.151Z,100.00
2023-05-10T04:13:06.963Z,100.00
2023-05-10T04:15:34.785Z,100.00
2023-05-10T04:18:02.537Z,100.00
2023-05-10T04:20:31.563Z,100.00
2023-05-10T04:22:59.291Z,100.00
2023-05-10T04:25:27.003Z,100.00
2023-05-10T04:27:54.674Z,100.00
2023-05-10T04:30:22.722Z,100.00
2023-05-10T04:32:50.519Z,100.00
2023-05-10T04:35:18.357Z,100.00
2023-05-10T04:37:47.443Z,100.00
2023-05-10T04:40:15.416Z,100.00
2023-05-10T04:42:43.384Z,100.00
2023-05-10T04:45:11.947Z,100.00
2023-05-10T04:47:39.860Z,100.00
2023-05-10T04:50:08.844Z,100.00
2023-05-10T04:52:37.332Z,100.00
2023-05-10T04:55:08.460Z,100.00
2023-05-10T04:57:36.126Z,100.00
2023-05-10T05:00:04.034Z,100.00
2023-05-10T05:02:31.777Z,100.00
2023-05-10T05:04:59.757Z,100.00
2023-05-10T05:07:27.506Z,100.00
2023-05-10T05:09:55.238Z,100.00
2023-05-10T05:12:24.310Z,100.00
2023-05-10T05:14:51.988Z,100.00
2023-05-10T05:17:19.665Z,100.00
2023-05-10T05:19:47.742Z,100.00
2023-05-10T05:22:16.181Z,100.00
2023-05-10T05:24:44.541Z,100.00
2023-05-10T05:27:12.202Z,100.00
2023-05-10T05:29:41.236Z,100.00
2023-05-10T05:32:09.540Z,100.00
2023-05-10T05:34:37.341Z,100.00
2023-05-10T05:37:05.066Z,100.00
2023-05-10T05:39:32.702Z,100.00
2023-05-10T05:42:00.401Z,100.00
2023-05-10T05:44:29.838Z,100.00
2023-05-10T05:46:58.969Z,100.00
2023-05-10T05:49:26.623Z,100.00
2023-05-10T05:51:54.411Z,100.00
2023-05-10T05:54:22.517Z,100.00
2023-05-10T05:56:50.421Z,100.00
2023-05-10T05:59:18.173Z,100.00
2023-05-10T06:01:46.319Z,100.00
2023-05-10T06:04:15.402Z,100.00
2023-05-10T06:06:43.327Z,100.00
2023-05-10T06:09:11.050Z,100.00
2023-05-10T06:11:38.904Z,100.00
2023-05-10T06:14:08.142Z,100.00
2023-05-10T06:16:36.199Z,100.00
2023-05-10T06:19:04.195Z,100.00
2023-05-10T06:21:33.773Z,100.00
2023-05-10T06:24:01.471Z,100.00
2023-05-10T06:26:29.245Z,100.00
2023-05-10T06:28:56.910Z,100.00
2023-05-10T06:31:24.596Z,100.00
2023-05-10T06:33:53.287Z,100.00
2023-05-10T06:36:22.961Z,100.00
2023-05-10T06:38:52.255Z,100.00
2023-05-10T06:41:19.948Z,100.00
2023-05-10T06:43:47.602Z,100.00
2023-05-10T06:46:15.292Z,100.00
2023-05-10T06:48:42.993Z,100.00
2023-05-10T06:51:10.769Z,100.00
2023-05-10T06:53:38.465Z,100.00
2023-05-10T06:56:07.683Z,100.00
2023-05-10T06:58:35.344Z,100.00
2023-05-10T07:01:06.453Z,100.00
2023-05-10T07:03:34.282Z,100.00
2023-05-10T07:06:04.089Z,100.00
2023-05-10T07:08:32.276Z,100.00
2023-05-10T07:11:02.500Z,100.00
2023-05-10T07:13:32.385Z,100.00
2023-05-10T07:16:00.304Z,100.00
2023-05-10T07:18:28.349Z,100.00
2023-05-10T07:20:56.142Z,100.00
2023-05-10T07:23:23.835Z,100.00
2023-05-10T07:25:53.063Z,100.00
2023-05-10T07:28:20.931Z,100.00
2023-05-10T07:30:50.086Z,100.00
2023-05-10T07:33:18.152Z,100.00
2023-05-10T07:35:45.859Z,100.00
2023-05-10T07:38:13.559Z,100.00
2023-05-10T07:40:41.631Z,100.00
2023-05-10T07:43:09.365Z,100.00
2023-05-10T07:45:37.102Z,100.00
2023-05-10T07:48:06.445Z,100.00
2023-05-10T07:50:34.206Z,100.00
2023-05-10T07:53:01.904Z,100.00
2023-05-10T07:55:29.543Z,100.00
2023-05-10T07:57:57.771Z,100.00
2023-05-10T08:00:25.501Z,100.00
2023-05-10T08:02:53.966Z,100.00
2023-05-10T08:05:23.131Z,100.00
2023-05-10T08:07:50.803Z,100.00
2023-05-10T08:10:18.545Z,100.00
2023-05-10T08:12:46.224Z,100.00
2023-05-10T08:15:13.954Z,100.00
2023-05-10T08:17:42.004Z,100.00
2023-05-10T08:20:10.309Z,100.00
2023-05-10T08:22:39.357Z,100.00
2023-05-10T08:25:08.085Z,99.56
2023-05-10T08:27:35.810Z,94.24
2023-05-10T08:30:03.471Z,94.90
2023-05-10T08:32:31.180Z,94.04
2023-05-10T08:34:58.895Z,94.26
2023-05-10T08:37:26.661Z,93.27
2023-05-10T08:39:55.673Z,89.60
2023-05-10T08:42:24.713Z,92.03
2023-05-10T08:44:52.501Z,89.57
2023-05-10T08:47:20.776Z,88.30
2023-05-10T08:49:49.932Z,92.00
2023-05-10T08:52:18.895Z,91.69
2023-05-10T08:54:46.655Z,97.77
2023-05-10T08:57:15.675Z,100.00
2023-05-10T08:59:43.341Z,100.00
2023-05-10T09:02:12.238Z,96.06
2023-05-10T09:04:40.071Z,93.09
2023-05-10T09:07:08.448Z,88.21
2023-05-10T09:09:36.637Z,87.24
2023-05-10T09:12:04.364Z,87.45
2023-05-10T09:14:36.759Z,82.84
2023-05-10T09:17:04.764Z,87.68
2023-05-10T09:19:32.444Z,88.24
2023-05-10T09:22:01.189Z,88.17
2023-05-10T09:24:28.898Z,89.41
2023-05-10T09:26:59.268Z,85.02
2023-05-10T09:29:27.048Z,80.85
2023-05-10T09:31:56.606Z,85.40
2023-05-10T09:34:31.642Z,84.33
2023-05-10T09:37:01.809Z,77.35
2023-05-10T09:39:33.829Z,78.94
2023-05-10T09:42:04.682Z,80.41
2023-05-10T09:44:33.506Z,77.65
2023-05-10T09:47:02.674Z,80.39
2023-05-10T09:49:30.504Z,76.90
2023-05-10T09:52:05.400Z,76.67
2023-05-10T09:54:33.534Z,78.13
2023-05-10T09:57:01.659Z,77.65
2023-05-10T09:59:31.387Z,79.32
2023-05-10T10:01:59.888Z,72.93
2023-05-10T10:04:29.340Z,74.93
2023-05-10T10:07:04.879Z,74.22
2023-05-10T10:09:33.155Z,73.21
2023-05-10T10:12:02.250Z,73.42
2023-05-10T10:14:30.799Z,72.06
2023-05-10T10:19:30.645Z,70.49
2023-05-10T10:22:00.000Z,70.73
2023-05-10T10:24:27.670Z,72.35
2023-05-10T10:26:58.259Z,74.75
2023-05-10T10:29:30.701Z,75.85
2023-05-10T10:32:06.183Z,72.96
2023-05-10T10:34:35.313Z,76.95
2023-05-10T10:37:06.677Z,77.74
2023-05-10T10:39:37.386Z,75.68
2023-05-10T10:42:06.392Z,71.62
2023-05-10T10:44:39.057Z,74.52
2023-05-10T10:47:12.300Z,75.45
2023-05-10T10:49:52.534Z,73.96
2023-05-10T10:52:24.971Z,73.60
2023-05-10T10:54:53.988Z,73.95
2023-05-10T10:57:23.587Z,72.31
2023-05-10T10:59:51.812Z,69.53
2023-05-10T11:02:36.323Z,67.28
2023-05-10T11:05:45.894Z,69.72
2023-05-10T11:08:28.875Z,68.77
2023-05-10T11:11:08.963Z,67.66
2023-05-10T11:13:40.747Z,68.76
2023-05-10T11:16:16.878Z,69.15
2023-05-10T11:18:55.484Z,67.15
2023-05-10T11:21:23.665Z,68.74
2023-05-10T11:23:57.106Z,67.55
2023-05-10T11:26:26.608Z,66.53
2023-05-10T11:28:56.259Z,70.64
2023-05-10T11:31:24.757Z,72.46
2023-05-10T11:33:53.738Z,70.38
2023-05-10T11:36:22.509Z,74.25
2023-05-10T11:38:51.850Z,76.00
2023-05-10T11:41:22.704Z,78.42
2023-05-10T11:43:52.245Z,75.58
2023-05-10T11:46:21.609Z,70.29
2023-05-10T11:48:51.841Z,69.79
2023-05-10T11:51:22.930Z,68.67
2023-05-10T11:53:54.398Z,67.58
2023-05-10T11:56:22.775Z,71.99
2023-05-10T11:58:55.289Z,69.33
2023-05-10T12:01:23.255Z,71.33
2023-05-10T12:03:51.383Z,69.49
2023-05-10T12:06:20.776Z,69.88
2023-05-10T12:08:53.357Z,74.40
2023-05-10T12:11:23.083Z,75.24
2023-05-10T12:13:50.948Z,73.66
2023-05-10T12:16:19.750Z,73.94
2023-05-10T12:18:47.844Z,70.85
2023-05-10T12:21:16.842Z,69.87
2023-05-10T12:23:44.644Z,67.21
2023-05-10T12:26:12.490Z,69.90
2023-05-10T12:28:41.543Z,70.77
2023-05-10T12:31:09.419Z,69.45
2023-05-10T12:33:42.596Z,69.08
2023-05-10T12:36:11.300Z,64.76
2023-05-10T12:38:41.190Z,63.22
2023-05-10T12:41:09.898Z,60.49
2023-05-10T12:43:37.992Z,63.41
2023-05-10T12:46:10.802Z,64.41
2023-05-10T12:48:39.927Z,67.26
2023-05-10T12:51:10.240Z,66.91
2023-05-10T12:53:38.158Z,66.76
2023-05-10T12:56:06.456Z,71.21
2023-05-10T12:58:36.045Z,67.67
2023-05-10T13:01:05.100Z,68.00
2023-05-10T13:03:34.233Z,68.05
2023-05-10T13:06:01.925Z,66.63
2023-05-10T13:08:34.089Z,66.89
2023-05-10T13:11:01.956Z,68.49
2023-05-10T13:13:29.600Z,72.84
2023-05-10T13:15:57.249Z,80.26
2023-05-10T13:18:25.575Z,80.68
2023-05-10T13:20:56.698Z,83.43
2023-05-10T13:23:24.433Z,83.00
2023-05-10T13:25:52.090Z,81.07
2023-05-10T13:28:19.748Z,81.49
2023-05-10T13:30:47.433Z,79.14
2023-05-10T13:33:15.091Z,80.78
2023-05-10T13:35:42.800Z,77.03
2023-05-10T13:38:12.200Z,77.56
2023-05-10T13:40:39.864Z,72.87
2023-05-10T13:43:07.555Z,73.24
2023-05-10T13:45:35.204Z,78.25
2023-05-10T13:48:03.277Z,89.34
2023-05-10T13:50:31.019Z,83.26
2023-05-10T13:52:58.672Z,76.63
2023-05-10T13:55:28.059Z,83.28
2023-05-10T13:57:55.717Z,85.60
2023-05-10T14:00:23.728Z,78.95
2023-05-10T14:02:51.458Z,73.89
2023-05-10T14:05:22.253Z,70.39
2023-05-10T14:07:52.919Z,70.38
2023-05-10T14:10:20.981Z,70.89
2023-05-10T14:12:49.987Z,74.95
2023-05-10T14:15:18.331Z,73.25
2023-05-10T14:17:46.138Z,70.84
2023-05-10T14:20:13.890Z,69.08
2023-05-10T14:22:41.906Z,71.31
2023-05-10T14:25:10.594Z,69.81
2023-05-10T14:27:38.256Z,68.63
2023-05-10T14:30:08.877Z,77.81
2023-05-10T14:32:37.539Z,79.91
2023-05-10T14:35:06.926Z,79.01
2023-05-10T14:37:34.654Z,82.00
2023-05-10T14:40:02.428Z,82.78
2023-05-10T14:42:30.111Z,78.01
2023-05-10T14:44:58.188Z,75.04
2023-05-10T14:47:27.316Z,74.03
2023-05-10T14:49:55.052Z,71.92
2023-05-10T14:52:22.759Z,70.19
2023-05-10T14:54:50.421Z,70.34
2023-05-10T14:57:18.085Z,71.26
2023-05-10T14:59:45.756Z,71.22
2023-05-10T15:02:14.511Z,72.93
2023-05-10T15:04:43.919Z,70.75
2023-05-10T15:07:15.326Z,71.44
2023-05-10T15:09:43.092Z,71.51
2023-05-10T15:12:10.722Z,73.68
2023-05-10T15:14:38.384Z,72.54
2023-05-10T15:17:08.416Z,71.99
2023-05-10T15:19:36.902Z,71.78
2023-05-10T15:22:06.273Z,71.05
2023-05-10T15:24:33.979Z,71.96
2023-05-10T15:27:02.034Z,72.88
2023-05-10T15:29:30.492Z,76.56
2023-05-10T15:31:58.153Z,76.05
2023-05-10T15:34:25.807Z,74.56
2023-05-10T15:36:53.487Z,73.11
2023-05-10T15:39:22.494Z,75.24
2023-05-10T15:41:50.215Z,76.07
2023-05-10T15:44:17.875Z,83.02
2023-05-10T15:46:45.588Z,85.39
2023-05-10T15:49:13.285Z,84.59
2023-05-10T15:51:41.616Z,80.28
2023-05-10T15:54:09.294Z,78.14
2023-05-10T15:56:38.425Z,83.65
2023-05-10T15:59:08.573Z,81.82
2023-05-10T16:01:36.355Z,79.41
2023-05-10T16:04:04.343Z,77.58
2023-05-10T16:06:32.776Z,77.02
2023-05-10T16:09:00.415Z,78.89
2023-05-10T16:11:28.296Z,78.86
2023-05-10T16:13:57.387Z,74.37
2023-05-10T16:16:25.748Z,73.70
2023-05-10T16:18:53.513Z,80.32
2023-05-10T16:21:21.258Z,88.21
2023-05-10T16:23:48.945Z,88.96
2023-05-10T16:26:16.962Z,82.30
2023-05-10T16:28:44.644Z,83.42
2023-05-10T16:31:13.799Z,80.67
2023-05-10T16:33:41.484Z,84.36
2023-05-10T16:36:09.324Z,81.02
2023-05-10T16:38:37.735Z,80.45
2023-05-10T16:41:06.762Z,80.76
2023-05-10T16:43:34.511Z,78.27
2023-05-10T16:46:02.181Z,76.76
2023-05-10T16:48:31.249Z,77.74
2023-05-10T16:50:58.942Z,83.83
2023-05-10T16:53:26.850Z,80.20
2023-05-10T16:55:54.564Z,77.46
2023-05-10T16:58:22.285Z,76.79
2023-05-10T17:00:50.026Z,82.37
2023-05-10T17:03:17.936Z,80.25
2023-05-10T17:05:47.052Z,82.84
2023-05-10T17:08:14.784Z,82.88
2023-05-10T17:10:42.490Z,82.06
2023-05-10T17:13:10.893Z,80.41
2023-05-10T17:15:39.118Z,77.67
2023-05-10T17:18:07.424Z,75.26
2023-05-10T17:20:35.338Z,83.47
2023-05-10T17:23:04.408Z,87.10
2023-05-10T17:25:32.042Z,85.28
2023-05-10T17:27:59.763Z,90.85
2023-05-10T17:30:28.803Z,90.09
2023-05-10T17:32:56.577Z,91.35
2023-05-10T17:35:24.642Z,89.92
2023-05-10T17:37:52.389Z,89.03
2023-05-10T17:40:21.809Z,86.63
2023-05-10T17:42:49.703Z,87.44
2023-05-10T17:45:18.053Z,86.75
2023-05-10T17:47:46.322Z,87.49
2023-05-10T17:50:14.180Z,85.51
2023-05-10T17:52:41.848Z,85.44
2023-05-10T17:55:10.143Z,83.45
2023-05-10T17:57:39.179Z,83.61
2023-05-10T18:00:09.188Z,83.99
2023-05-10T18:02:37.371Z,85.23
2023-05-10T18:05:05.740Z,87.38
2023-05-10T18:07:33.581Z,87.81
2023-05-10T18:10:01.326Z,86.48
2023-05-10T18:12:29.089Z,86.37
2023-05-10T18:14:58.083Z,87.68
2023-05-10T18:17:26.267Z,86.10
2023-05-10T18:19:53.974Z,83.25
2023-05-10T18:22:21.645Z,79.95
2023-05-10T18:24:49.336Z,78.96
2023-05-10T18:27:17.216Z,77.49
2023-05-10T18:29:44.930Z,78.66
2023-05-10T18:32:13.996Z,80.12
2023-05-10T18:34:41.669Z,80.94
2023-05-10T18:37:09.962Z,83.48
2023-05-10T18:39:37.959Z,80.99
2023-05-10T18:42:06.286Z,79.99
2023-05-10T18:44:33.975Z,80.10
2023-05-10T18:47:01.644Z,79.14
2023-05-10T18:49:30.689Z,78.79
2023-05-10T18:51:58.449Z,76.89
2023-05-10T18:54:26.728Z,76.86
2023-05-10T18:56:54.424Z,78.93
2023-05-10T18:59:22.139Z,79.20
2023-05-10T19:01:51.305Z,78.28
2023-05-10T19:04:19.329Z,79.30
2023-05-10T19:06:48.369Z,79.55
2023-05-10T19:09:16.263Z,79.81
2023-05-10T19:11:44.008Z,80.18
2023-05-10T19:14:11.732Z,82.04
2023-05-10T19:16:41.613Z,83.56
2023-05-10T19:19:10.161Z,83.87
2023-05-10T19:21:39.994Z,84.37
2023-05-10T19:24:10.026Z,85.45
2023-05-10T19:26:38.318Z,87.20
2023-05-10T19:29:05.996Z,88.88
2023-05-10T19:31:34.645Z,89.80
2023-05-10T19:34:06.065Z,90.45
2023-05-10T19:36:34.372Z,93.60
2023-05-10T19:39:02.409Z,96.23
2023-05-10T19:41:31.876Z,97.83
2023-05-10T19:43:59.856Z,99.32
2023-05-10T19:46:27.658Z,100.00
2023-05-10T19:48:55.474Z,99.12
2023-05-10T19:51:23.184Z,99.26
2023-05-10T19:53:50.911Z,100.00
2023-05-10T19:56:19.467Z,100.00
2023-05-10T19:58:48.501Z,99.58
2023-05-10T20:01:16.249Z,98.25
2023-05-10T20:03:44.057Z,97.63
2023-05-10T20:06:12.178Z,97.59
2023-05-10T20:08:39.866Z,97.99
2023-05-10T20:11:07.537Z,98.93
2023-05-10T20:13:35.230Z,98.68
2023-05-10T20:16:06.104Z,100.00
2023-05-10T20:18:33.875Z,100.00
2023-05-10T20:21:01.928Z,100.00
2023-05-10T20:23:29.661Z,100.00
2023-05-10T20:25:57.349Z,100.00
2023-05-10T20:28:26.490Z,100.00
2023-05-10T20:30:55.513Z,100.00
2023-05-10T20:33:24.819Z,100.00
2023-05-10T20:35:52.556Z,100.00
2023-05-10T20:38:21.082Z,100.00
2023-05-10T20:40:49.077Z,100.00
2023-05-10T20:43:16.833Z,100.00
2023-05-10T20:45:44.490Z,100.00
2023-05-10T20:48:12.173Z,100.00
2023-05-10T20:50:41.265Z,100.00
2023-05-10T20:53:08.973Z,100.00
2023-05-10T20:55:36.706Z,100.00
2023-05-10T20:58:05.133Z,100.00
2023-05-10T21:00:33.163Z,100.00
2023-05-10T21:03:00.894Z,100.00
2023-05-10T21:05:28.641Z,100.00
2023-05-10T21:07:58.445Z,100.00
2023-05-10T21:10:28.327Z,100.00
2023-05-10T21:12:56.202Z,100.00
2023-05-10T21:15:24.449Z,100.00
2023-05-10T21:17:53.873Z,100.00
2023-05-10T21:20:21.669Z,100.00
2023-05-10T21:22:49.393Z,100.00
2023-05-10T21:25:19.090Z,100.00
2023-05-10T21:27:47.233Z,100.00
2023-05-10T21:30:15.303Z,100.00
2023-05-10T21:32:43.134Z,100.00
2023-05-10T21:35:11.157Z,100.00
2023-05-10T21:37:38.905Z,100.00
2023-05-10T21:42:01.641Z,100.00
2023-05-10T21:44:29.485Z,100.00
2023-05-10T21:46:57.172Z,100.00
2023-05-10T21:49:24.904Z,100.00
2023-05-10T21:51:52.616Z,100.00
2023-05-10T21:54:20.360Z,100.00
2023-05-10T21:56:48.483Z,100.00
2023-05-10T21:59:17.991Z,100.00
2023-05-10T22:01:45.893Z,100.00
2023-05-10T22:04:14.112Z,100.00
2023-05-10T22:06:41.853Z,100.00
2023-05-10T22:09:10.092Z,100.00
2023-05-10T22:11:37.752Z,100.00
2023-05-10T22:14:05.431Z,100.00
2023-05-10T22:16:34.470Z,100.00
2023-05-10T22:19:02.199Z,100.00
2023-05-10T22:21:29.994Z,100.00
2023-05-10T22:23:57.708Z,100.00
2023-05-10T22:26:26.084Z,100.00
2023-05-10T22:28:53.800Z,100.00
2023-05-10T22:31:21.571Z,100.00
2023-05-10T22:33:50.690Z,100.00
2023-05-10T22:36:18.350Z,100.00
2023-05-10T22:38:46.063Z,100.00
2023-05-10T22:41:13.701Z,100.00
2023-05-10T22:43:41.429Z,100.00
2023-05-10T22:46:09.271Z,100.00
2023-05-10T22:48:37.109Z,100.00
2023-05-10T22:51:06.332Z,100.00
2023-05-10T22:53:33.980Z,100.00
2023-05-10T22:56:01.791Z,100.00
2023-05-10T22:58:29.477Z,100.00
2023-05-10T23:00:57.169Z,100.00
2023-05-10T23:03:25.792Z,100.00
2023-05-10T23:05:53.501Z,100.00
2023-05-10T23:08:22.652Z,100.00
2023-05-10T23:10:50.497Z,100.00
2023-05-10T23:13:18.786Z,100.00
2023-05-10T23:15:46.553Z,100.00
2023-05-10T23:18:14.360Z,100.00
2023-05-10T23:20:42.687Z,100.00
2023-05-10T23:23:10.372Z,100.00
2023-05-10T23:25:39.524Z,100.00
2023-05-10T23:28:07.201Z,100.00
2023-05-10T23:30:34.910Z,100.00
2023-05-10T23:33:03.155Z,100.00
2023-05-10T23:35:30.958Z,100.00
2023-05-10T23:37:58.727Z,100.00
2023-05-10T23:40:26.585Z,100.00
2023-05-10T23:42:55.606Z,100.00
2023-05-10T23:45:23.291Z,100.00
2023-05-10T23:47:51.008Z,100.00
2023-05-10T23:50:19.092Z,100.00
2023-05-10T23:52:46.947Z,100.00
2023-05-10T23:55:14.825Z,100.00
2023-05-10T23:57:42.520Z,100.00
